COT weather

Cotulla-La Salle County Airport
Cotulla, Texas, United States

Public forecast

Using degrees Fahrenheit for public forecast. Weather courtesy of forecast.io.

Current aviation weather report (METAR) for Cotulla-La Salle County Airport

Retrieved 2019/12/07 23:53 UTC (19 minutes ago):

KCOT 072353Z AUTO 00000KT 10SM CLR 20/04 A3016 RMK AO2 SLP209 T02000044 10239 20189 56008

Aviation forecast (TAF) for Cotulla-La Salle County Airport

Retrieved 2019-12-08 00:21 UTC (0 seconds ago):

TAF KCOT 072320Z 0800/0824 13004KT P6SM SKC TEMPO 0811/0815 4SM BR FM081500 16007KT P6SM FEW025